Time;durP1;ratioP1;P1;durP2;ratioP2;P2;SDS_P1;SDS_P2;PMS_P1;PMS_P2;Temp;Humidity;BMP_temperature;BMP_pressure;BME280_temperature;BME280_humidity;BME280_pressure;Samples;Min_cycle;Max_cycle;Signal;HPM_P1;HPM_P2
2022/05/20 00:01:15;;;;;;;0.55;0.55;;;;;;;5.20;81.86;99106.91;5011636;28;20046;-87
2022/05/20 00:03:43;;;;;;;0.50;0.50;;;;;;;5.22;81.87;99112.88;4994863;28;20141;-87
2022/05/20 00:06:10;;;;;;;0.60;0.60;;;;;;;5.20;81.88;99108.75;4997082;28;20140;-87
2022/05/20 00:08:38;;;;;;;0.57;0.57;;;;;;;5.27;81.81;99119.47;4997959;28;20046;-87
2022/05/20 00:11:05;;;;;;;0.57;0.57;;;;;;;5.33;81.67;99121.31;4997852;28;20053;-87
2022/05/20 00:13:33;;;;;;;0.60;0.60;;;;;;;5.24;81.30;99111.84;5014936;28;20161;-87
2022/05/20 00:16:01;;;;;;;0.50;0.50;;;;;;;5.36;81.27;99118.22;5015629;28;20069;-86
2022/05/20 00:18:35;;;;;;;0.60;0.60;;;;;;;5.35;81.11;99128.09;4991611;28;20052;-86
2022/05/20 00:21:02;;;;;;;0.60;0.60;;;;;;;5.35;81.15;99129.97;4995220;28;20046;-87
2022/05/20 00:23:29;;;;;;;0.50;0.50;;;;;;;5.21;81.23;99111.22;4977748;28;20138;-87
2022/05/20 00:25:57;;;;;;;0.60;0.60;;;;;;;5.30;81.49;99125.22;4995144;28;20069;-86
2022/05/20 00:28:27;;;;;;;0.60;0.60;;;;;;;5.23;81.57;99127.06;4994576;28;20057;-86
2022/05/20 00:30:58;;;;;;;0.60;0.60;;;;;;;5.21;81.42;99129.13;4994937;28;20413;-87
2022/05/20 00:33:26;;;;;;;0.57;0.57;;;;;;;5.19;81.47;99140.06;4977425;28;20061;-86
2022/05/20 00:35:54;;;;;;;0.60;0.60;;;;;;;5.03;81.58;99112.88;4977397;28;20074;-85
2022/05/20 00:38:22;;;;;;;0.60;0.60;;;;;;;5.04;81.86;99125.22;5000823;28;20056;-86
2022/05/20 00:40:51;;;;;;;0.63;0.63;;;;;;;5.14;81.84;99147.88;5014710;28;20053;-86
2022/05/20 00:43:23;;;;;;;0.60;0.60;;;;;;;5.14;81.89;99144.34;5014227;28;20559;-86
2022/05/20 00:45:51;;;;;;;0.50;0.50;;;;;;;5.03;81.86;99137.78;4996817;28;20176;-86
2022/05/20 00:48:19;;;;;;;0.60;0.60;;;;;;;5.21;81.64;99153.22;5014221;28;20049;-87
2022/05/20 00:51:14;;;;;;;0.60;0.60;;;;;;;5.25;82.01;99148.28;5014166;28;20076;-86
2022/05/20 00:53:49;;;;;;;0.60;0.60;;;;;;;5.23;81.73;99151.16;4988893;28;20100;-85
2022/05/20 00:56:20;;;;;;;0.60;0.60;;;;;;;5.21;81.99;99158.56;5014065;28;20101;-85
2022/05/20 00:58:49;;;;;;;0.55;0.55;;;;;;;5.17;82.77;99171.53;5013349;28;20065;-86
2022/05/20 01:01:16;;;;;;;0.60;0.60;;;;;;;5.05;82.69;99167.00;4997143;28;20049;-86
2022/05/20 01:03:45;;;;;;;0.60;0.60;;;;;;;4.99;83.08;99174.81;5014070;28;20074;-86
2022/05/20 01:06:12;;;;;;;0.60;0.60;;;;;;;4.78;83.55;99150.91;5014013;28;20045;-86
2022/05/20 01:08:40;;;;;;;0.60;0.60;;;;;;;4.84;83.54;99176.84;4996814;28;20061;-86
2022/05/20 01:11:07;;;;;;;0.60;0.60;;;;;;;4.64;83.80;99165.31;5012699;28;20046;-88
2022/05/20 01:13:35;;;;;;;0.45;0.45;;;;;;;4.59;84.13;99162.41;5013558;28;20057;-86
2022/05/20 01:16:07;;;;;;;0.60;0.60;;;;;;;4.59;84.60;99167.75;5013286;28;20045;-85
2022/05/20 01:18:36;;;;;;;0.60;0.60;;;;;;;4.51;84.35;99177.59;5014565;28;20501;-87
2022/05/20 01:21:04;;;;;;;0.60;0.60;;;;;;;4.41;85.54;99184.34;5019260;28;20076;-88
2022/05/20 01:23:33;;;;;;;0.60;0.60;;;;;;;4.43;85.63;99192.97;5018033;28;20103;-86
2022/05/20 01:26:00;;;;;;;0.57;0.57;;;;;;;4.22;86.10;99167.22;5014231;28;20073;-86
2022/05/20 01:28:29;;;;;;;0.60;0.60;;;;;;;4.28;86.42;99188.63;5013898;28;20123;-86
2022/05/20 01:30:59;;;;;;;0.60;0.60;;;;;;;4.24;86.63;99194.56;4996251;28;20080;-87
2022/05/20 01:33:31;;;;;;;0.60;0.60;;;;;;;4.12;87.04;99196.97;5013480;28;20133;-87
2022/05/20 01:36:01;;;;;;;0.60;0.60;;;;;;;4.04;86.87;99186.44;4995987;28;20052;-87
2022/05/20 01:38:28;;;;;;;0.60;0.60;;;;;;;4.07;87.44;99194.06;5013479;28;20053;-86
2022/05/20 01:41:12;;;;;;;0.60;0.60;;;;;;;4.15;87.40;99207.25;5013521;28;20042;-86
2022/05/20 01:43:55;;;;;;;0.60;0.60;;;;;;;3.90;87.49;99177.56;5012135;28;20456;-85
2022/05/20 01:46:37;;;;;;;0.63;0.63;;;;;;;4.08;87.63;99206.41;5012186;28;20054;-87
2022/05/20 01:49:19;;;;;;;0.60;0.60;;;;;;;4.08;87.38;99212.56;5018334;28;20056;-84
2022/05/20 01:52:10;;;;;;;0.60;0.60;;;;;;;4.06;87.32;99213.78;5019715;28;20096;-85
2022/05/20 01:54:37;;;;;;;0.60;0.60;;;;;;;4.04;87.20;99216.63;5020538;28;20057;-85
2022/05/20 01:57:10;;;;;;;0.60;0.60;;;;;;;4.04;86.65;99205.97;5016422;28;20452;-87
2022/05/20 01:59:42;;;;;;;0.60;0.60;;;;;;;4.26;85.45;99230.75;4980172;28;20515;-85
2022/05/20 02:02:56;;;;;;;0.60;0.60;;;;;;;4.27;83.04;99194.16;5011650;28;20064;-86
2022/05/20 02:05:34;;;;;;;0.70;0.70;;;;;;;4.61;80.26;99228.00;4904508;29;20547;-87
2022/05/20 02:08:10;;;;;;;0.60;0.60;;;;;;;4.63;79.09;99215.25;4914232;29;20094;-86
2022/05/20 02:10:52;;;;;;;0.60;0.60;;;;;;;4.87;77.87;99234.47;4913855;29;20083;-87
2022/05/20 02:13:20;;;;;;;0.60;0.60;;;;;;;4.86;76.79;99224.78;4914032;29;20423;-87
2022/05/20 02:15:53;;;;;;;0.60;0.60;;;;;;;4.95;75.75;99228.91;4915679;29;20579;-87
2022/05/20 02:18:27;;;;;;;0.70;0.70;;;;;;;4.99;75.00;99220.28;4920377;29;20653;-86
2022/05/20 02:20:59;;;;;;;0.70;0.70;;;;;;;5.26;74.55;99252.44;4903952;29;20062;-88
2022/05/20 02:23:34;;;;;;;0.60;0.60;;;;;;;5.26;73.75;99244.41;4918011;29;20203;-88
2022/05/20 02:26:12;;;;;;;0.60;0.60;;;;;;;5.38;73.49;99255.34;4933625;29;20102;-86
2022/05/20 02:28:46;;;;;;;0.60;0.60;;;;;;;5.41;73.58;99247.72;4916735;29;20146;-86
2022/05/20 02:31:22;;;;;;;0.70;0.70;;;;;;;5.33;73.59;99244.41;4917375;29;20139;-85
2022/05/20 02:33:50;;;;;;;0.50;0.50;;;;;;;5.48;73.90;99244.22;4933014;29;20055;-87
2022/05/20 02:36:32;;;;;;;0.60;0.60;;;;;;;5.59;73.31;99259.66;4916915;29;20617;-86
2022/05/20 02:39:00;;;;;;;0.60;0.60;;;;;;;5.44;73.11;99238.44;4932113;29;20138;-87
2022/05/20 02:41:27;;;;;;;0.60;0.60;;;;;;;5.68;72.74;99273.69;4934770;28;20069;-86
2022/05/20 02:43:54;;;;;;;0.60;0.60;;;;;;;5.56;72.26;99244.84;4975196;28;20057;-87
2022/05/20 02:46:21;;;;;;;0.60;0.60;;;;;;;5.76;70.81;99262.75;4962226;28;20087;-84
2022/05/20 02:48:48;;;;;;;0.60;0.60;;;;;;;5.74;69.99;99244.19;5000350;28;20058;-84
2022/05/20 02:51:17;;;;;;;0.60;0.60;;;;;;;5.81;69.79;99255.75;5006978;28;20084;-84
2022/05/20 02:53:47;;;;;;;0.60;0.60;;;;;;;5.86;69.16;99263.16;5017115;28;20046;-83
2022/05/20 02:56:14;;;;;;;0.60;0.60;;;;;;;5.93;68.54;99260.47;5016698;28;20517;-82
2022/05/20 03:04:13;;;;;;;0.60;0.60;;;;;;;5.75;66.56;99264.63;5003109;28;20081;-82
2022/05/20 03:06:42;;;;;;;0.60;0.60;;;;;;;5.77;66.50;99267.91;5001509;28;20046;-85
2022/05/20 03:09:11;;;;;;;0.60;0.60;;;;;;;5.91;65.77;99274.06;4995860;28;20047;-85
2022/05/20 03:11:39;;;;;;;0.60;0.60;;;;;;;6.00;64.56;99270.19;4991913;28;20061;-83
2022/05/20 03:14:13;;;;;;;0.70;0.70;;;;;;;6.11;64.32;99278.63;4975085;28;20425;-84
2022/05/20 03:16:41;;;;;;;0.50;0.50;;;;;;;6.15;62.75;99266.44;4991941;28;20054;-84
2022/05/20 03:19:09;;;;;;;0.70;0.70;;;;;;;6.21;62.07;99279.00;4974681;28;20159;-88
2022/05/20 03:21:37;;;;;;;0.70;0.70;;;;;;;6.19;61.22;99276.53;4991903;28;20398;-83
2022/05/20 03:24:07;;;;;;;0.60;0.60;;;;;;;6.27;61.01;99286.22;4991114;28;20050;-87
2022/05/20 03:26:35;;;;;;;0.60;0.60;;;;;;;6.21;60.73;99270.97;4991705;28;20463;-84
2022/05/20 03:29:04;;;;;;;0.60;0.60;;;;;;;6.25;59.15;99280.22;4958935;28;20054;-84
2022/05/20 03:31:35;;;;;;;0.60;0.60;;;;;;;6.32;58.88;99290.94;4991716;28;20046;-83
2022/05/20 03:34:06;;;;;;;0.60;0.60;;;;;;;6.23;58.22;99285.00;4974794;28;20053;-83
2022/05/20 03:36:37;;;;;;;0.60;0.60;;;;;;;6.33;58.34;99290.75;4975227;28;20038;-84
2022/05/20 03:39:06;;;;;;;0.60;0.60;;;;;;;6.40;57.34;99290.72;4975583;28;20053;-82
2022/05/20 03:41:34;;;;;;;0.60;0.60;;;;;;;6.39;57.12;99297.94;4995359;28;20084;-83
2022/05/20 03:44:03;;;;;;;0.60;0.60;;;;;;;6.46;57.07;99309.47;4976406;28;20050;-82
2022/05/20 03:46:31;;;;;;;0.60;0.60;;;;;;;6.51;56.89;99317.72;4651754;28;10000719;-81
2022/05/20 03:48:59;;;;;;;0.60;0.60;;;;;;;6.43;56.07;99296.50;5011670;28;20153;-83
2022/05/20 03:51:27;;;;;;;0.60;0.60;;;;;;;6.61;55.82;99321.78;5012163;28;20064;-82
2022/05/20 03:53:54;;;;;;;0.60;0.60;;;;;;;6.68;55.53;99322.59;4994815;28;20133;-82
2022/05/20 03:56:21;;;;;;;0.60;0.60;;;;;;;6.60;55.08;99306.75;5010510;28;20194;-82
2022/05/20 03:58:48;;;;;;;0.60;0.60;;;;;;;6.77;54.73;99324.03;5011285;28;20116;-82
2022/05/20 04:04:01;;;;;;;0.60;0.60;;;;;;;6.89;54.39;99326.88;4996657;28;20073;-87
2022/05/20 04:06:28;;;;;;;0.60;0.60;;;;;;;6.93;54.02;99328.06;5011228;28;20050;-83
2022/05/20 04:08:56;;;;;;;0.60;0.60;;;;;;;6.81;54.00;99317.22;5011248;28;20053;-81
2022/05/20 04:11:24;;;;;;;0.60;0.60;;;;;;;6.93;53.40;99334.25;5011309;28;20052;-82
2022/05/20 04:13:52;;;;;;;0.55;0.55;;;;;;;6.94;53.49;99333.25;4993234;28;20046;-82
2022/05/20 04:16:19;;;;;;;0.70;0.70;;;;;;;7.02;54.13;99332.19;5010795;28;20104;-83
2022/05/20 04:18:46;;;;;;;0.60;0.60;;;;;;;7.17;53.19;99339.97;5013161;28;20137;-83
2022/05/20 04:21:14;;;;;;;0.70;0.70;;;;;;;7.19;52.88;99340.56;4998653;28;20050;-87
2022/05/20 04:23:42;;;;;;;0.60;0.60;;;;;;;7.04;52.22;99323.91;5015002;28;20046;-84
2022/05/20 04:26:10;;;;;;;0.60;0.60;;;;;;;7.23;53.20;99344.47;4997144;28;20084;-84
2022/05/20 04:28:38;;;;;;;0.60;0.60;;;;;;;7.27;52.60;99342.19;4995097;28;20050;-84
2022/05/20 04:31:06;;;;;;;0.60;0.60;;;;;;;7.30;53.25;99350.63;4994030;28;20042;-85
2022/05/20 04:33:33;;;;;;;0.60;0.60;;;;;;;7.41;53.44;99345.59;4993635;28;20114;-85
2022/05/20 04:36:01;;;;;;;0.60;0.60;;;;;;;7.36;53.31;99332.81;4994912;28;20046;-85
2022/05/20 04:38:28;;;;;;;0.70;0.70;;;;;;;7.43;53.27;99344.34;4994441;28;20047;-85
2022/05/20 04:49:12;;;;;;;0.60;0.60;;;;;;;7.52;53.03;99347.59;4994508;28;20054;-87
2022/05/20 04:51:41;;;;;;;0.60;0.60;;;;;;;7.60;53.06;99355.41;4994769;28;20054;-85
2022/05/20 04:56:54;;;;;;;0.60;0.60;;;;;;;7.59;53.06;99332.25;4994387;28;20080;-83
2022/05/20 04:59:22;;;;;;;0.70;0.70;;;;;;;7.71;53.10;99345.81;4994292;28;20399;-85
2022/05/20 05:01:51;;;;;;;0.60;0.60;;;;;;;7.77;51.88;99343.09;4977326;28;20445;-85
2022/05/20 05:04:19;;;;;;;0.60;0.60;;;;;;;7.79;52.26;99357.13;4994356;28;20137;-84
2022/05/20 05:06:47;;;;;;;0.60;0.60;;;;;;;7.71;51.89;99354.72;4992066;28;20070;-85
2022/05/20 05:09:14;;;;;;;0.60;0.60;;;;;;;7.58;52.25;99336.00;4997948;28;20058;-85
2022/05/20 05:11:42;;;;;;;0.60;0.60;;;;;;;7.67;50.96;99344.59;4973302;28;20042;-85
2022/05/20 05:14:12;;;;;;;0.60;0.60;;;;;;;7.62;51.57;99339.88;4975016;28;20051;-84
2022/05/20 05:16:40;;;;;;;0.60;0.60;;;;;;;7.85;51.26;99347.38;4973586;28;20406;-85
2022/05/20 05:19:07;;;;;;;0.60;0.60;;;;;;;7.94;51.24;99343.38;4984952;28;20042;-84
2022/05/20 05:21:35;;;;;;;0.60;0.60;;;;;;;7.85;49.07;99359.97;4985955;28;20097;-86
2022/05/20 05:24:04;;;;;;;0.70;0.70;;;;;;;7.87;51.26;99357.91;4971845;28;20568;-86
2022/05/20 05:26:34;;;;;;;0.70;0.70;;;;;;;8.05;50.37;99371.41;4976030;28;20411;-83
2022/05/20 05:29:03;;;;;;;0.60;0.60;;;;;;;8.07;49.38;99363.94;4986583;28;20512;-84
2022/05/20 05:31:30;;;;;;;0.70;0.70;;;;;;;8.02;49.78;99364.59;5003603;28;20526;-86
2022/05/20 05:33:58;;;;;;;0.68;0.68;;;;;;;8.12;48.58;99366.78;5013778;28;20100;-84
2022/05/20 05:36:25;;;;;;;0.60;0.60;;;;;;;8.15;48.11;99377.13;5012886;28;20054;-86
2022/05/20 05:38:53;;;;;;;0.50;0.50;;;;;;;7.72;48.39;99379.69;5009503;28;20519;-83
2022/05/20 05:41:20;;;;;;;0.70;0.70;;;;;;;7.41;48.83;99372.47;5010677;28;20061;-83
2022/05/20 05:43:48;;;;;;;0.70;0.70;;;;;;;7.71;49.39;99389.63;5008226;28;20050;-87
2022/05/20 05:46:15;;;;;;;0.68;0.68;;;;;;;7.59;49.01;99376.06;5004632;28;20041;-86
2022/05/20 05:48:42;;;;;;;0.60;0.60;;;;;;;7.73;49.10;99379.50;4989689;28;20053;-85
2022/05/20 05:51:10;;;;;;;0.70;0.70;;;;;;;8.06;49.48;99380.31;4998364;28;20513;-86
2022/05/20 05:53:37;;;;;;;0.60;0.60;;;;;;;8.32;49.05;99371.19;4993341;28;20566;-86
2022/05/20 05:56:06;;;;;;;0.50;0.50;;;;;;;8.06;46.63;99385.69;4961400;28;20050;-85
2022/05/20 05:58:33;;;;;;;0.60;0.60;;;;;;;8.13;45.60;99386.47;4996445;28;20045;-84
2022/05/20 06:01:02;;;;;;;0.50;0.50;;;;;;;7.81;45.38;99387.28;5001491;28;20409;-87
2022/05/20 06:03:30;;;;;;;0.70;0.70;;;;;;;7.55;46.75;99382.91;5011412;28;20046;-86
2022/05/20 06:05:59;;;;;;;0.60;0.60;;;;;;;7.38;47.38;99387.97;5014345;28;20076;-86
2022/05/20 06:08:27;;;;;;;0.70;0.70;;;;;;;7.43;45.80;99387.31;5011821;28;20446;-84
2022/05/20 06:10:59;;;;;;;0.55;0.55;;;;;;;7.21;43.69;99365.31;4665449;28;10001411;-85
2022/05/20 06:13:28;;;;;;;0.63;0.63;;;;;;;7.51;42.98;99388.94;5000029;28;20059;-85
2022/05/20 06:15:56;;;;;;;0.63;0.63;;;;;;;7.79;43.17;99388.53;4989106;28;20042;-90
2022/05/20 06:18:25;;;;;;;0.70;0.70;;;;;;;7.90;44.61;99361.00;4991222;28;20049;-86
2022/05/20 06:20:52;;;;;;;0.70;0.70;;;;;;;8.36;43.99;99389.34;4988998;28;20425;-84
2022/05/20 06:23:20;;;;;;;0.70;0.70;;;;;;;8.56;44.50;99389.22;5002125;28;20057;-87
2022/05/20 06:25:48;;;;;;;0.70;0.70;;;;;;;8.56;45.01;99373.06;4980012;28;20056;-83
2022/05/20 06:28:35;;;;;;;0.70;0.70;;;;;;;8.80;43.17;99389.38;5004764;28;20062;-86
2022/05/20 06:31:05;;;;;;;0.68;0.68;;;;;;;8.76;42.85;99363.94;5004606;28;20502;-84
2022/05/20 06:33:32;;;;;;;0.70;0.70;;;;;;;8.97;42.35;99384.22;4998576;28;20045;-84
2022/05/20 06:41:31;;;;;;;0.60;0.60;;;;;;;9.11;41.16;99381.16;4999327;28;20109;-85
2022/05/20 06:43:58;;;;;;;0.70;0.70;;;;;;;9.06;39.92;99369.41;5009613;28;20064;-85
2022/05/20 06:46:26;;;;;;;0.70;0.70;;;;;;;9.02;40.24;99366.34;4998519;28;20057;-85
2022/05/20 06:48:59;;;;;;;0.70;0.70;;;;;;;9.15;40.22;99394.16;4992822;28;20093;-86
2022/05/20 06:51:34;;;;;;;0.70;0.70;;;;;;;9.04;39.58;99364.25;4991766;28;20050;-86
2022/05/20 06:54:02;;;;;;;0.70;0.70;;;;;;;9.32;40.00;99389.81;4992854;28;20408;-87
2022/05/20 06:56:30;;;;;;;0.70;0.70;;;;;;;9.33;39.01;99378.78;4991254;28;20097;-87
2022/05/20 06:59:00;;;;;;;0.70;0.70;;;;;;;9.39;39.08;99397.78;4991496;28;20058;-87
2022/05/20 07:01:28;;;;;;;0.68;0.68;;;;;;;9.30;39.03;99395.41;4991044;28;20050;-86
2022/05/20 07:03:55;;;;;;;0.60;0.60;;;;;;;9.47;38.82;99395.63;5007518;28;20048;-86
2022/05/20 07:06:25;;;;;;;0.70;0.70;;;;;;;9.61;39.43;99390.03;4992932;28;20054;-86
2022/05/20 07:08:52;;;;;;;0.70;0.70;;;;;;;9.79;39.07;99392.66;4993140;28;20046;-86
2022/05/20 07:11:21;;;;;;;0.60;0.60;;;;;;;9.89;38.71;99390.25;5007789;28;20054;-87
2022/05/20 07:13:52;;;;;;;0.60;0.60;;;;;;;9.87;37.97;99391.53;4991720;28;20149;-86
2022/05/20 07:16:19;;;;;;;0.70;0.70;;;;;;;9.92;38.82;99370.91;4991944;28;20073;-87
2022/05/20 07:18:47;;;;;;;0.60;0.60;;;;;;;9.85;36.54;99370.19;4992768;28;20057;-87
2022/05/20 07:21:14;;;;;;;0.70;0.70;;;;;;;9.69;35.80;99395.91;5007678;28;20113;-87
2022/05/20 07:23:41;;;;;;;0.65;0.65;;;;;;;9.38;35.04;99391.59;4990587;28;20054;-86
2022/05/20 07:26:09;;;;;;;0.60;0.60;;;;;;;9.60;36.89;99396.50;4990842;28;20580;-87
2022/05/20 07:28:37;;;;;;;0.60;0.60;;;;;;;9.93;36.08;99396.81;4991260;28;20058;-88
2022/05/20 07:31:06;;;;;;;0.70;0.70;;;;;;;10.01;34.93;99398.38;4992616;28;20042;-86
2022/05/20 07:33:34;;;;;;;0.70;0.70;;;;;;;9.89;35.22;99400.19;4981674;28;20050;-87
2022/05/20 07:36:01;;;;;;;0.60;0.60;;;;;;;9.96;35.20;99411.72;4999459;28;20061;-88
2022/05/20 07:38:28;;;;;;;0.68;0.68;;;;;;;10.06;35.00;99411.16;5002330;28;20050;-87
2022/05/20 07:40:57;;;;;;;0.70;0.70;;;;;;;10.11;35.08;99419.38;5001746;28;20124;-85
2022/05/20 07:43:25;;;;;;;0.70;0.70;;;;;;;10.45;35.88;99414.28;5010289;28;20077;-88
2022/05/20 07:45:53;;;;;;;0.70;0.70;;;;;;;10.66;33.96;99412.88;5000979;28;20046;-88
2022/05/20 07:48:20;;;;;;;0.70;0.70;;;;;;;10.78;33.37;99416.41;5010400;28;20042;-87
2022/05/20 07:50:52;;;;;;;0.70;0.70;;;;;;;10.67;32.42;99401.84;5003139;28;20433;-84
2022/05/20 07:53:21;;;;;;;0.70;0.70;;;;;;;10.36;31.79;99406.53;5003836;28;20133;-89
2022/05/20 07:55:50;;;;;;;0.70;0.70;;;;;;;10.59;33.57;99416.53;5033412;28;20050;-88
2022/05/20 07:58:19;;;;;;;0.80;0.80;;;;;;;10.84;33.73;99386.59;5002264;28;20052;-89
2022/05/20 08:00:59;;;;;;;0.80;0.80;;;;;;;11.21;33.40;99407.88;4992162;28;20121;-88
2022/05/20 08:06:13;;;;;;;0.80;0.80;;;;;;;11.34;31.65;99409.47;5009948;28;20464;-87
2022/05/20 08:08:41;;;;;;;0.80;0.80;;;;;;;11.32;30.37;99405.38;5023131;28;20501;-88
2022/05/20 08:11:13;;;;;;;0.80;0.80;;;;;;;11.40;29.68;99419.34;5006696;28;20088;-89
2022/05/20 08:13:41;;;;;;;0.80;0.80;;;;;;;11.52;31.11;99402.25;4998276;28;20521;-88
2022/05/20 08:16:08;;;;;;;0.80;0.80;;;;;;;12.00;31.24;99399.16;4988847;28;20455;-87
2022/05/20 08:18:35;;;;;;;0.80;0.80;;;;;;;12.28;29.50;99408.25;4990598;28;20085;-87
2022/05/20 08:21:02;;;;;;;0.80;0.80;;;;;;;12.26;29.95;99413.91;5006976;28;20046;-87
2022/05/20 08:23:29;;;;;;;0.80;0.80;;;;;;;12.12;32.56;99405.28;5000316;28;20053;-87
2022/05/20 08:25:56;;;;;;;0.90;0.90;;;;;;;12.69;33.00;99388.03;5000914;28;20073;-86
2022/05/20 08:28:24;;;;;;;0.60;0.60;;;;;;;13.08;31.90;99404.28;4994379;28;20251;-87
2022/05/20 08:30:51;;;;;;;0.50;0.50;;;;;;;12.35;32.20;99414.31;5003019;28;20165;-86
2022/05/20 08:33:18;;;;;;;0.60;0.60;;;;;;;12.06;33.90;99410.88;5004418;28;20073;-87
2022/05/20 08:35:45;;;;;;;0.90;0.90;;;;;;;12.69;32.20;99412.41;5009070;28;20046;-88
2022/05/20 08:38:12;;;;;;;0.80;0.80;;;;;;;13.48;31.46;99391.50;5011925;28;20057;-88
2022/05/20 08:40:45;;;;;;;0.80;0.80;;;;;;;13.80;31.07;99405.97;5011705;28;20053;-87
2022/05/20 08:43:26;;;;;;;0.80;0.80;;;;;;;13.93;29.90;99404.75;5003318;28;20061;-86
2022/05/20 08:45:54;;;;;;;0.80;0.80;;;;;;;13.66;29.98;99389.25;5004992;28;20049;-88
2022/05/20 08:48:21;;;;;;;0.90;0.90;;;;;;;13.66;29.73;99402.81;5027338;28;20042;-86
2022/05/20 08:50:54;;;;;;;0.90;0.90;;;;;;;13.90;28.63;99398.97;5012592;28;20065;-85
2022/05/20 08:53:31;;;;;;;0.90;0.90;;;;;;;14.25;28.47;99396.59;5012258;28;20053;-88
2022/05/20 08:56:09;;;;;;;0.90;0.90;;;;;;;14.81;29.21;99381.81;4993915;28;20080;-88
2022/05/20 08:58:40;;;;;;;0.80;0.80;;;;;;;15.15;27.91;99393.13;4990974;28;20042;-87
2022/05/20 09:01:08;;;;;;;0.90;0.90;;;;;;;15.32;27.98;99377.44;4991961;28;20051;-89
2022/05/20 09:03:35;;;;;;;0.80;0.80;;;;;;;15.29;27.10;99377.13;5016460;28;20148;-88
2022/05/20 09:06:09;;;;;;;0.85;0.85;;;;;;;15.35;27.30;99378.81;5010840;28;20045;-88
2022/05/20 09:08:36;;;;;;;0.80;0.80;;;;;;;15.39;26.69;99378.00;5012450;28;20084;-88
2022/05/20 09:11:06;;;;;;;0.90;0.90;;;;;;;15.70;26.36;99358.22;5011753;28;20833;-88
2022/05/20 09:16:27;;;;;;;0.85;0.85;;;;;;;15.97;25.22;99377.84;5010477;28;20096;-82
2022/05/20 09:19:10;;;;;;;0.80;0.80;;;;;;;16.51;24.73;99381.13;5011145;28;20046;-85
2022/05/20 09:21:43;;;;;;;0.80;0.80;;;;;;;16.94;25.70;99373.44;5010433;28;20041;-84
2022/05/20 09:24:22;;;;;;;0.90;0.90;;;;;;;16.72;23.36;99365.56;5009997;28;20088;-85
2022/05/20 09:26:52;;;;;;;0.70;0.70;;;;;;;16.12;25.01;99374.34;5014410;28;20505;-86
2022/05/20 09:29:30;;;;;;;0.80;0.80;;;;;;;16.66;24.96;99360.13;5005873;28;20085;-85
2022/05/20 09:32:36;;;;;;;0.80;0.80;;;;;;;16.63;25.11;99357.13;5003840;28;20228;-88
2022/05/20 09:35:13;;;;;;;0.70;0.70;;;;;;;17.05;24.77;99347.78;5002796;28;20058;-88
2022/05/20 09:37:42;;;;;;;0.82;0.82;;;;;;;17.76;23.68;99361.03;4989975;28;20520;-87
2022/05/20 09:40:33;;;;;;;0.80;0.80;;;;;;;17.79;23.23;99375.22;4991473;28;20050;-87
2022/05/20 09:43:29;;;;;;;0.80;0.80;;;;;;;16.98;21.90;99369.88;5000511;28;20113;-85
2022/05/20 09:45:59;;;;;;;0.80;0.80;;;;;;;16.44;22.46;99363.16;5003296;28;20050;-87
2022/05/20 09:48:59;;;;;;;0.90;0.90;;;;;;;17.03;22.83;99364.41;5006127;28;20050;-89
2022/05/20 09:51:50;;;;;;;0.90;0.90;;;;;;;18.38;21.45;99369.63;4656370;28;10000516;-88
2022/05/20 09:54:32;;;;;;;0.90;0.90;;;;;;;18.76;21.03;99368.97;4991279;28;20054;-87
2022/05/20 09:57:11;;;;;;;0.80;0.80;;;;;;;19.20;21.80;99363.28;5014070;28;20065;-86
2022/05/20 10:00:14;;;;;;;0.80;0.80;;;;;;;19.04;21.22;99376.34;5014077;28;20045;-88
2022/05/20 10:02:52;;;;;;;0.77;0.77;;;;;;;19.16;21.53;99364.16;5013174;28;20066;-88
2022/05/20 10:05:31;;;;;;;0.80;0.80;;;;;;;19.16;21.57;99355.94;5011936;28;20046;-85
2022/05/20 10:08:52;;;;;;;0.80;0.80;;;;;;;19.72;21.81;99357.16;4996720;28;20105;-86
2022/05/20 10:11:21;;;;;;;0.80;0.80;;;;;;;20.09;20.35;99350.81;4949802;29;20428;-86
2022/05/20 10:14:13;;;;;;;0.80;0.80;;;;;;;19.47;20.40;99343.50;4949030;28;20047;-86
2022/05/20 10:17:03;;;;;;;0.80;0.80;;;;;;;19.61;20.13;99334.56;4938693;29;20566;-86
2022/05/20 10:20:15;;;;;;;0.80;0.80;;;;;;;19.58;20.31;99355.13;4932820;29;20919;-84
2022/05/20 10:22:45;;;;;;;0.70;0.70;;;;;;;19.86;21.73;99349.81;4913206;28;20420;-85
2022/05/20 10:25:33;;;;;;;0.80;0.80;;;;;;;19.68;19.35;99343.25;4947704;28;20552;-87
2022/05/20 10:32:34;;;;;;;0.80;0.80;;;;;;;18.82;19.83;99337.75;4935595;28;20590;-87
2022/05/20 10:33:50;;;;;;;0.75;0.75;;;;;;;20.08;19.26;99330.03;4920043;29;20059;-88
2022/05/20 10:36:22;;;;;;;0.80;0.80;;;;;;;20.81;18.89;99338.59;4948621;28;20121;-90
2022/05/20 10:39:12;;;;;;;0.80;0.80;;;;;;;21.27;18.55;99340.41;4933548;29;20047;-86
2022/05/20 10:42:18;;;;;;;0.70;0.70;;;;;;;21.16;18.90;99328.84;4965712;28;20055;-86
2022/05/20 10:48:36;;;;;;;0.80;0.80;;;;;;;21.57;18.96;99325.22;5002048;28;20049;-89
2022/05/20 10:51:28;;;;;;;0.80;0.80;;;;;;;21.53;17.95;99330.53;4994992;28;20049;-88
2022/05/20 10:54:20;;;;;;;0.80;0.80;;;;;;;21.05;19.04;99333.72;5010687;28;20060;-89
2022/05/20 10:56:47;;;;;;;0.70;0.70;;;;;;;20.49;17.73;99330.13;5002286;28;20077;-89
2022/05/20 10:59:24;;;;;;;0.80;0.80;;;;;;;20.40;18.42;99329.19;5020050;28;20559;-88
2022/05/20 11:02:27;;;;;;;0.80;0.80;;;;;;;19.95;18.40;99317.06;5006112;28;20069;-90
2022/05/20 11:05:05;;;;;;;0.90;0.90;;;;;;;19.66;18.62;99318.06;4990564;28;20065;-90
2022/05/20 11:07:44;;;;;;;0.90;0.90;;;;;;;19.27;19.13;99324.63;5006498;28;20069;-88
2022/05/20 11:10:56;;;;;;;0.90;0.90;;;;;;;19.18;19.43;99310.78;4998236;28;20151;-88
2022/05/20 11:13:26;;;;;;;0.90;0.90;;;;;;;19.41;20.31;99298.16;4953393;28;20055;-87
2022/05/20 11:16:19;;;;;;;0.90;0.90;;;;;;;20.56;18.46;99305.91;4953684;28;20419;-89
2022/05/20 11:19:07;;;;;;;0.82;0.82;;;;;;;21.04;18.21;99317.56;4968778;28;20089;-89
2022/05/20 11:22:09;;;;;;;0.80;0.80;;;;;;;20.98;18.63;99303.16;4954071;28;20483;-89
2022/05/20 11:24:52;;;;;;;0.80;0.80;;;;;;;20.72;18.39;99300.91;4970387;28;20059;-88
2022/05/20 11:27:38;;;;;;;0.90;0.90;;;;;;;20.06;18.32;99307.59;4970260;28;20420;-85
2022/05/20 11:30:35;;;;;;;0.90;0.90;;;;;;;19.64;18.95;99298.38;4971747;28;20062;-89
2022/05/20 11:33:11;;;;;;;0.90;0.90;;;;;;;19.75;19.02;99299.88;4973654;28;20484;-89
2022/05/20 11:36:12;;;;;;;0.80;0.80;;;;;;;20.40;18.33;99298.22;4972658;28;20061;-88
2022/05/20 11:38:45;;;;;;;0.90;0.90;;;;;;;21.26;18.28;99292.94;4962285;28;20055;-87
2022/05/20 11:41:23;;;;;;;0.80;0.80;;;;;;;22.33;18.77;99292.34;4970273;28;20070;-89
2022/05/20 11:44:37;;;;;;;0.80;0.80;;;;;;;23.46;17.78;99286.38;4957195;28;20063;-86
2022/05/20 11:47:19;;;;;;;0.80;0.80;;;;;;;23.53;16.46;99286.72;4970737;28;20059;-83
2022/05/20 11:50:05;;;;;;;0.70;0.70;;;;;;;23.19;17.72;99276.47;4970258;28;20063;-86
2022/05/20 11:52:51;;;;;;;0.70;0.70;;;;;;;22.90;17.40;99275.91;4985012;28;20082;-85
2022/05/20 11:55:26;;;;;;;0.70;0.70;;;;;;;23.78;17.03;99260.31;4977438;28;20601;-85
2022/05/20 11:58:03;;;;;;;0.70;0.70;;;;;;;24.71;16.21;99263.47;4954083;28;20046;-86
2022/05/20 12:00:31;;;;;;;0.68;0.68;;;;;;;24.38;15.78;99247.50;4948059;28;20047;-87
2022/05/20 12:03:05;;;;;;;0.70;0.70;;;;;;;24.17;15.89;99239.16;4994442;28;20073;-87
2022/05/20 12:05:36;;;;;;;0.57;0.57;;;;;;;24.36;16.02;99263.59;4991425;28;20475;-89
2022/05/20 12:08:04;;;;;;;0.60;0.60;;;;;;;24.63;16.36;99252.13;4988452;28;20061;-87
2022/05/20 12:10:31;;;;;;;0.60;0.60;;;;;;;24.73;16.13;99258.41;4988300;28;20051;-87
2022/05/20 12:13:09;;;;;;;0.60;0.60;;;;;;;24.31;16.09;99239.75;4976852;28;20482;-86
2022/05/20 12:15:43;;;;;;;0.70;0.70;;;;;;;24.09;16.43;99257.34;4982309;28;20052;-85
2022/05/20 12:24:11;;;;;;;0.70;0.70;;;;;;;25.07;16.25;99254.66;4993804;28;20129;-87
2022/05/20 12:24:29;;;;;;;0.60;0.60;;;;;;;25.57;14.27;99233.66;4958236;28;20502;-86
2022/05/20 12:26:57;;;;;;;0.60;0.60;;;;;;;25.21;15.00;99241.41;4980075;28;20062;-83
2022/05/20 12:29:40;;;;;;;0.60;0.60;;;;;;;25.29;15.31;99231.44;4976052;28;20050;-86
2022/05/20 12:32:16;;;;;;;0.60;0.60;;;;;;;25.58;15.42;99230.56;5002584;28;20461;-86
2022/05/20 12:34:54;;;;;;;0.60;0.60;;;;;;;25.91;15.01;99227.03;5013383;28;20539;-85
2022/05/20 12:37:47;;;;;;;0.60;0.60;;;;;;;26.65;14.67;99221.59;5013595;28;20052;-86
2022/05/20 12:40:26;;;;;;;0.60;0.60;;;;;;;25.68;14.10;99223.81;5004476;28;20533;-85
2022/05/20 12:43:00;;;;;;;0.60;0.60;;;;;;;25.73;14.69;99215.31;4981490;28;20073;-85
2022/05/20 12:45:31;;;;;;;0.50;0.50;;;;;;;26.45;14.66;99217.75;4995735;28;20177;-86
2022/05/20 12:47:59;;;;;;;0.60;0.60;;;;;;;26.16;14.59;99211.28;4978600;28;20080;-87